sensor_id;sensor_type;location;lat;lon;timestamp;P1;durP1;ratioP1;P2;durP2;ratioP2
59440;SDS011;45245;51.538;11.870;2022-07-22T00:01:35;4.32;;;3.92;;
59440;SDS011;45245;51.538;11.870;2022-07-22T00:04:01;5.13;;;4.63;;
59440;SDS011;45245;51.538;11.870;2022-07-22T00:06:27;5.28;;;4.05;;
59440;SDS011;45245;51.538;11.870;2022-07-22T00:08:53;4.85;;;4.45;;
59440;SDS011;45245;51.538;11.870;2022-07-22T00:11:19;4.93;;;4.53;;
59440;SDS011;45245;51.538;11.870;2022-07-22T00:13:44;4.40;;;4.10;;
59440;SDS011;45245;51.538;11.870;2022-07-22T00:16:11;4.32;;;3.85;;
59440;SDS011;45245;51.538;11.870;2022-07-22T00:18:36;4.88;;;4.43;;
59440;SDS011;45245;51.538;11.870;2022-07-22T00:21:02;4.55;;;4.15;;
59440;SDS011;45245;51.538;11.870;2022-07-22T00:23:27;4.38;;;3.97;;
59440;SDS011;45245;51.538;11.870;2022-07-22T00:25:53;4.55;;;4.15;;
59440;SDS011;45245;51.538;11.870;2022-07-22T00:28:18;5.18;;;4.20;;
59440;SDS011;45245;51.538;11.870;2022-07-22T00:30:44;4.75;;;4.00;;
59440;SDS011;45245;51.538;11.870;2022-07-22T00:33:09;4.55;;;4.15;;
59440;SDS011;45245;51.538;11.870;2022-07-22T00:35:34;4.32;;;3.92;;
59440;SDS011;45245;51.538;11.870;2022-07-22T00:38:00;6.28;;;3.90;;
59440;SDS011;45245;51.538;11.870;2022-07-22T00:40:25;4.22;;;3.83;;
59440;SDS011;45245;51.538;11.870;2022-07-22T00:42:51;4.65;;;4.25;;
59440;SDS011;45245;51.538;11.870;2022-07-22T00:45:17;4.03;;;3.72;;
59440;SDS011;45245;51.538;11.870;2022-07-22T00:47:43;4.57;;;3.83;;
59440;SDS011;45245;51.538;11.870;2022-07-22T00:50:08;5.38;;;4.18;;
59440;SDS011;45245;51.538;11.870;2022-07-22T00:52:34;4.45;;;4.05;;
59440;SDS011;45245;51.538;11.870;2022-07-22T00:55:00;4.47;;;4.07;;
59440;SDS011;45245;51.538;11.870;2022-07-22T00:57:25;4.97;;;4.03;;
59440;SDS011;45245;51.538;11.870;2022-07-22T00:59:51;4.47;;;4.18;;
59440;SDS011;45245;51.538;11.870;2022-07-22T01:02:17;4.50;;;4.10;;
59440;SDS011;45245;51.538;11.870;2022-07-22T01:04:42;4.45;;;4.05;;
59440;SDS011;45245;51.538;11.870;2022-07-22T01:07:08;4.82;;;4.43;;
59440;SDS011;45245;51.538;11.870;2022-07-22T01:09:33;4.38;;;3.92;;
59440;SDS011;45245;51.538;11.870;2022-07-22T01:11:59;4.40;;;4.00;;
59440;SDS011;45245;51.538;11.870;2022-07-22T01:14:25;4.55;;;4.15;;
59440;SDS011;45245;51.538;11.870;2022-07-22T01:16:50;4.93;;;4.30;;
59440;SDS011;45245;51.538;11.870;2022-07-22T01:19:16;4.20;;;3.85;;
59440;SDS011;45245;51.538;11.870;2022-07-22T01:21:41;4.28;;;3.88;;
59440;SDS011;45245;51.538;11.870;2022-07-22T01:24:07;4.70;;;4.30;;
59440;SDS011;45245;51.538;11.870;2022-07-22T01:26:32;4.35;;;4.05;;
59440;SDS011;45245;51.538;11.870;2022-07-22T01:28:58;5.00;;;4.60;;
59440;SDS011;45245;51.538;11.870;2022-07-22T01:31:24;5.15;;;4.55;;
59440;SDS011;45245;51.538;11.870;2022-07-22T01:33:49;5.28;;;4.75;;
59440;SDS011;45245;51.538;11.870;2022-07-22T01:36:14;5.15;;;4.65;;
59440;SDS011;45245;51.538;11.870;2022-07-22T01:38:40;5.60;;;5.10;;
59440;SDS011;45245;51.538;11.870;2022-07-22T01:41:05;5.00;;;4.50;;
59440;SDS011;45245;51.538;11.870;2022-07-22T01:43:31;4.80;;;4.40;;
59440;SDS011;45245;51.538;11.870;2022-07-22T01:45:57;4.60;;;4.30;;
59440;SDS011;45245;51.538;11.870;2022-07-22T01:48:22;4.63;;;4.22;;
59440;SDS011;45245;51.538;11.870;2022-07-22T01:50:48;4.75;;;4.28;;
59440;SDS011;45245;51.538;11.870;2022-07-22T01:53:14;4.68;;;4.10;;
59440;SDS011;45245;51.538;11.870;2022-07-22T01:55:39;5.32;;;4.60;;
59440;SDS011;45245;51.538;11.870;2022-07-22T01:58:05;4.97;;;4.55;;
59440;SDS011;45245;51.538;11.870;2022-07-22T02:00:31;4.68;;;4.28;;
59440;SDS011;45245;51.538;11.870;2022-07-22T02:02:57;4.97;;;4.53;;
59440;SDS011;45245;51.538;11.870;2022-07-22T02:05:22;6.72;;;5.00;;
59440;SDS011;45245;51.538;11.870;2022-07-22T02:07:48;4.93;;;4.43;;
59440;SDS011;45245;51.538;11.870;2022-07-22T02:10:13;4.53;;;4.20;;
59440;SDS011;45245;51.538;11.870;2022-07-22T02:12:38;4.95;;;4.47;;
59440;SDS011;45245;51.538;11.870;2022-07-22T02:15:04;5.55;;;4.25;;
59440;SDS011;45245;51.538;11.870;2022-07-22T02:17:30;7.35;;;4.50;;
59440;SDS011;45245;51.538;11.870;2022-07-22T02:19:56;4.57;;;4.18;;
59440;SDS011;45245;51.538;11.870;2022-07-22T02:22:22;4.18;;;3.83;;
59440;SDS011;45245;51.538;11.870;2022-07-22T02:24:47;4.70;;;4.30;;
59440;SDS011;45245;51.538;11.870;2022-07-22T02:27:13;4.28;;;3.88;;
59440;SDS011;45245;51.538;11.870;2022-07-22T02:29:38;5.15;;;4.65;;
59440;SDS011;45245;51.538;11.870;2022-07-22T02:32:03;5.03;;;4.63;;
59440;SDS011;45245;51.538;11.870;2022-07-22T02:34:29;4.63;;;4.05;;
59440;SDS011;45245;51.538;11.870;2022-07-22T02:36:54;4.93;;;4.53;;
59440;SDS011;45245;51.538;11.870;2022-07-22T02:39:20;5.32;;;3.97;;
59440;SDS011;45245;51.538;11.870;2022-07-22T02:41:45;5.03;;;4.43;;
59440;SDS011;45245;51.538;11.870;2022-07-22T02:44:11;4.57;;;4.18;;
59440;SDS011;45245;51.538;11.870;2022-07-22T02:46:36;4.47;;;4.05;;
59440;SDS011;45245;51.538;11.870;2022-07-22T02:49:01;4.00;;;3.70;;
59440;SDS011;45245;51.538;11.870;2022-07-22T02:51:29;3.85;;;3.55;;
59440;SDS011;45245;51.538;11.870;2022-07-22T02:53:54;4.25;;;3.85;;
59440;SDS011;45245;51.538;11.870;2022-07-22T02:56:20;4.03;;;3.70;;
59440;SDS011;45245;51.538;11.870;2022-07-22T02:58:45;4.13;;;3.83;;
59440;SDS011;45245;51.538;11.870;2022-07-22T03:01:11;3.88;;;3.40;;
59440;SDS011;45245;51.538;11.870;2022-07-22T03:03:37;4.05;;;3.75;;
59440;SDS011;45245;51.538;11.870;2022-07-22T03:06:03;4.95;;;4.55;;
59440;SDS011;45245;51.538;11.870;2022-07-22T03:08:28;4.53;;;4.13;;
59440;SDS011;45245;51.538;11.870;2022-07-22T03:10:53;4.22;;;3.80;;
59440;SDS011;45245;51.538;11.870;2022-07-22T03:13:19;4.35;;;3.95;;
59440;SDS011;45245;51.538;11.870;2022-07-22T03:15:44;4.40;;;4.00;;
59440;SDS011;45245;51.538;11.870;2022-07-22T03:18:09;4.80;;;4.00;;
59440;SDS011;45245;51.538;11.870;2022-07-22T03:20:35;4.55;;;4.15;;
59440;SDS011;45245;51.538;11.870;2022-07-22T03:23:01;4.40;;;4.00;;
59440;SDS011;45245;51.538;11.870;2022-07-22T03:25:26;4.57;;;3.67;;
59440;SDS011;45245;51.538;11.870;2022-07-22T03:27:52;5.40;;;4.75;;
59440;SDS011;45245;51.538;11.870;2022-07-22T03:30:17;6.38;;;4.85;;
59440;SDS011;45245;51.538;11.870;2022-07-22T03:32:43;4.97;;;4.47;;
59440;SDS011;45245;51.538;11.870;2022-07-22T03:35:11;4.72;;;4.32;;
59440;SDS011;45245;51.538;11.870;2022-07-22T03:37:37;4.70;;;4.30;;
59440;SDS011;45245;51.538;11.870;2022-07-22T03:40:03;6.28;;;4.85;;
59440;SDS011;45245;51.538;11.870;2022-07-22T03:42:28;4.05;;;3.65;;
59440;SDS011;45245;51.538;11.870;2022-07-22T03:44:54;5.13;;;4.07;;
59440;SDS011;45245;51.538;11.870;2022-07-22T03:47:22;4.63;;;4.22;;
59440;SDS011;45245;51.538;11.870;2022-07-22T03:49:47;5.85;;;4.13;;
59440;SDS011;45245;51.538;11.870;2022-07-22T03:52:13;4.10;;;3.70;;
59440;SDS011;45245;51.538;11.870;2022-07-22T03:54:40;5.10;;;4.00;;
59440;SDS011;45245;51.538;11.870;2022-07-22T03:57:06;4.20;;;3.80;;
59440;SDS011;45245;51.538;11.870;2022-07-22T03:59:31;6.07;;;4.22;;
59440;SDS011;45245;51.538;11.870;2022-07-22T04:01:56;5.22;;;3.72;;
59440;SDS011;45245;51.538;11.870;2022-07-22T04:04:22;4.20;;;3.80;;
59440;SDS011;45245;51.538;11.870;2022-07-22T04:06:47;4.88;;;4.38;;
59440;SDS011;45245;51.538;11.870;2022-07-22T04:09:12;4.32;;;3.92;;
59440;SDS011;45245;51.538;11.870;2022-07-22T04:11:38;4.60;;;4.20;;
59440;SDS011;45245;51.538;11.870;2022-07-22T04:14:03;4.95;;;4.30;;
59440;SDS011;45245;51.538;11.870;2022-07-22T04:16:28;5.40;;;4.00;;
59440;SDS011;45245;51.538;11.870;2022-07-22T04:18:54;4.00;;;3.70;;
59440;SDS011;45245;51.538;11.870;2022-07-22T04:21:19;4.10;;;3.70;;
59440;SDS011;45245;51.538;11.870;2022-07-22T04:23:44;4.68;;;3.97;;
59440;SDS011;45245;51.538;11.870;2022-07-22T04:26:10;4.65;;;3.83;;
59440;SDS011;45245;51.538;11.870;2022-07-22T04:28:35;4.55;;;4.15;;
59440;SDS011;45245;51.538;11.870;2022-07-22T04:31:01;4.50;;;4.10;;
59440;SDS011;45245;51.538;11.870;2022-07-22T04:33:27;4.30;;;3.65;;
59440;SDS011;45245;51.538;11.870;2022-07-22T04:35:53;5.95;;;4.05;;
59440;SDS011;45245;51.538;11.870;2022-07-22T04:38:18;4.63;;;4.18;;
59440;SDS011;45245;51.538;11.870;2022-07-22T04:40:43;4.15;;;3.85;;
59440;SDS011;45245;51.538;11.870;2022-07-22T04:43:09;4.10;;;3.70;;
59440;SDS011;45245;51.538;11.870;2022-07-22T04:45:34;4.22;;;3.45;;
59440;SDS011;45245;51.538;11.870;2022-07-22T04:47:59;4.32;;;3.92;;
59440;SDS011;45245;51.538;11.870;2022-07-22T04:50:25;4.30;;;3.85;;
59440;SDS011;45245;51.538;11.870;2022-07-22T04:52:50;4.07;;;3.50;;
59440;SDS011;45245;51.538;11.870;2022-07-22T04:55:15;4.97;;;3.67;;
59440;SDS011;45245;51.538;11.870;2022-07-22T04:57:40;4.45;;;3.90;;
59440;SDS011;45245;51.538;11.870;2022-07-22T05:00:06;4.22;;;3.80;;
59440;SDS011;45245;51.538;11.870;2022-07-22T05:02:32;3.88;;;3.45;;
59440;SDS011;45245;51.538;11.870;2022-07-22T05:04:58;4.93;;;3.90;;
59440;SDS011;45245;51.538;11.870;2022-07-22T05:07:23;4.72;;;4.32;;
59440;SDS011;45245;51.538;11.870;2022-07-22T05:09:49;4.35;;;3.88;;
59440;SDS011;45245;51.538;11.870;2022-07-22T05:12:14;4.97;;;3.97;;
59440;SDS011;45245;51.538;11.870;2022-07-22T05:14:39;4.60;;;4.20;;
59440;SDS011;45245;51.538;11.870;2022-07-22T05:17:08;5.03;;;4.32;;
59440;SDS011;45245;51.538;11.870;2022-07-22T05:19:37;4.75;;;4.35;;
59440;SDS011;45245;51.538;11.870;2022-07-22T05:22:06;4.65;;;4.22;;
59440;SDS011;45245;51.538;11.870;2022-07-22T05:24:32;5.10;;;3.85;;
59440;SDS011;45245;51.538;11.870;2022-07-22T05:26:57;7.20;;;5.18;;
59440;SDS011;45245;51.538;11.870;2022-07-22T05:29:22;5.57;;;5.07;;
59440;SDS011;45245;51.538;11.870;2022-07-22T05:31:48;4.65;;;4.25;;
59440;SDS011;45245;51.538;11.870;2022-07-22T05:34:13;6.20;;;4.63;;
59440;SDS011;45245;51.538;11.870;2022-07-22T05:36:38;7.07;;;4.60;;
59440;SDS011;45245;51.538;11.870;2022-07-22T05:39:04;6.78;;;4.68;;
59440;SDS011;45245;51.538;11.870;2022-07-22T05:41:29;6.32;;;4.13;;
59440;SDS011;45245;51.538;11.870;2022-07-22T05:43:55;5.85;;;4.15;;
59440;SDS011;45245;51.538;11.870;2022-07-22T05:46:20;8.10;;;4.45;;
59440;SDS011;45245;51.538;11.870;2022-07-22T05:48:45;4.35;;;3.95;;
59440;SDS011;45245;51.538;11.870;2022-07-22T05:51:11;4.13;;;3.83;;
59440;SDS011;45245;51.538;11.870;2022-07-22T05:53:37;4.00;;;3.70;;
59440;SDS011;45245;51.538;11.870;2022-07-22T05:56:03;5.40;;;3.30;;
59440;SDS011;45245;51.538;11.870;2022-07-22T05:58:28;3.53;;;2.80;;
59440;SDS011;45245;51.538;11.870;2022-07-22T06:00:53;3.95;;;3.60;;
59440;SDS011;45245;51.538;11.870;2022-07-22T06:03:19;3.85;;;3.55;;
59440;SDS011;45245;51.538;11.870;2022-07-22T06:05:44;3.90;;;3.45;;
59440;SDS011;45245;51.538;11.870;2022-07-22T06:08:10;3.55;;;3.25;;
59440;SDS011;45245;51.538;11.870;2022-07-22T06:10:35;3.40;;;2.97;;
59440;SDS011;45245;51.538;11.870;2022-07-22T06:13:00;4.05;;;3.65;;
59440;SDS011;45245;51.538;11.870;2022-07-22T06:15:26;3.65;;;3.35;;
59440;SDS011;45245;51.538;11.870;2022-07-22T06:17:51;3.00;;;2.70;;
59440;SDS011;45245;51.538;11.870;2022-07-22T06:20:16;3.53;;;3.22;;
59440;SDS011;45245;51.538;11.870;2022-07-22T06:22:42;3.67;;;3.25;;
59440;SDS011;45245;51.538;11.870;2022-07-22T06:25:07;3.10;;;2.90;;
59440;SDS011;45245;51.538;11.870;2022-07-22T06:27:33;3.35;;;3.15;;
59440;SDS011;45245;51.538;11.870;2022-07-22T06:29:58;3.72;;;3.42;;
59440;SDS011;45245;51.538;11.870;2022-07-22T06:32:24;3.63;;;3.30;;
59440;SDS011;45245;51.538;11.870;2022-07-22T06:34:49;4.60;;;3.85;;
59440;SDS011;45245;51.538;11.870;2022-07-22T06:37:14;5.22;;;3.58;;
59440;SDS011;45245;51.538;11.870;2022-07-22T06:39:40;3.53;;;3.00;;
59440;SDS011;45245;51.538;11.870;2022-07-22T06:42:05;3.38;;;3.10;;
59440;SDS011;45245;51.538;11.870;2022-07-22T06:44:30;3.17;;;2.88;;
59440;SDS011;45245;51.538;11.870;2022-07-22T06:46:56;3.22;;;3.00;;
59440;SDS011;45245;51.538;11.870;2022-07-22T06:49:21;3.33;;;3.03;;
59440;SDS011;45245;51.538;11.870;2022-07-22T06:51:46;2.90;;;2.70;;
59440;SDS011;45245;51.538;11.870;2022-07-22T06:54:12;3.58;;;2.83;;
59440;SDS011;45245;51.538;11.870;2022-07-22T06:56:37;3.40;;;2.90;;
59440;SDS011;45245;51.538;11.870;2022-07-22T06:59:02;3.00;;;2.80;;
59440;SDS011;45245;51.538;11.870;2022-07-22T07:01:28;3.90;;;3.22;;
59440;SDS011;45245;51.538;11.870;2022-07-22T07:03:53;2.85;;;2.65;;
59440;SDS011;45245;51.538;11.870;2022-07-22T07:06:19;2.55;;;2.33;;
59440;SDS011;45245;51.538;11.870;2022-07-22T07:08:44;2.83;;;2.63;;
59440;SDS011;45245;51.538;11.870;2022-07-22T07:11:09;2.58;;;2.38;;
59440;SDS011;45245;51.538;11.870;2022-07-22T07:13:35;3.15;;;2.85;;
59440;SDS011;45245;51.538;11.870;2022-07-22T07:16:00;2.40;;;2.25;;
59440;SDS011;45245;51.538;11.870;2022-07-22T07:18:26;3.20;;;2.90;;
59440;SDS011;45245;51.538;11.870;2022-07-22T07:20:51;2.28;;;2.13;;
59440;SDS011;45245;51.538;11.870;2022-07-22T07:23:16;2.60;;;2.40;;
59440;SDS011;45245;51.538;11.870;2022-07-22T07:25:41;3.63;;;2.25;;
59440;SDS011;45245;51.538;11.870;2022-07-22T07:28:07;2.67;;;2.53;;
59440;SDS011;45245;51.538;11.870;2022-07-22T07:30:33;2.63;;;2.42;;
59440;SDS011;45245;51.538;11.870;2022-07-22T07:32:58;2.42;;;2.22;;
59440;SDS011;45245;51.538;11.870;2022-07-22T07:35:25;1.98;;;1.88;;
59440;SDS011;45245;51.538;11.870;2022-07-22T07:37:51;3.60;;;2.15;;
59440;SDS011;45245;51.538;11.870;2022-07-22T07:40:16;2.65;;;2.45;;
59440;SDS011;45245;51.538;11.870;2022-07-22T07:42:41;2.03;;;1.90;;
59440;SDS011;45245;51.538;11.870;2022-07-22T07:45:07;2.13;;;1.98;;
59440;SDS011;45245;51.538;11.870;2022-07-22T07:47:32;3.05;;;2.10;;
59440;SDS011;45245;51.538;11.870;2022-07-22T07:49:57;2.85;;;1.73;;
59440;SDS011;45245;51.538;11.870;2022-07-22T07:52:25;2.42;;;2.22;;
59440;SDS011;45245;51.538;11.870;2022-07-22T07:54:50;2.03;;;1.85;;
59440;SDS011;45245;51.538;11.870;2022-07-22T07:57:16;2.28;;;2.08;;
59440;SDS011;45245;51.538;11.870;2022-07-22T07:59:42;3.25;;;2.08;;
59440;SDS011;45245;51.538;11.870;2022-07-22T08:02:07;1.90;;;1.80;;
59440;SDS011;45245;51.538;11.870;2022-07-22T08:04:34;2.55;;;1.63;;
59440;SDS011;45245;51.538;11.870;2022-07-22T08:07:00;1.92;;;1.83;;
59440;SDS011;45245;51.538;11.870;2022-07-22T08:09:25;1.60;;;1.50;;
59440;SDS011;45245;51.538;11.870;2022-07-22T08:11:51;4.60;;;1.95;;
59440;SDS011;45245;51.538;11.870;2022-07-22T08:14:16;2.05;;;1.90;;
59440;SDS011;45245;51.538;11.870;2022-07-22T08:16:42;1.50;;;1.40;;
59440;SDS011;45245;51.538;11.870;2022-07-22T08:19:07;1.80;;;1.67;;
59440;SDS011;45245;51.538;11.870;2022-07-22T08:21:33;1.63;;;1.52;;
59440;SDS011;45245;51.538;11.870;2022-07-22T08:23:58;1.70;;;1.60;;
59440;SDS011;45245;51.538;11.870;2022-07-22T08:26:23;1.38;;;1.27;;
59440;SDS011;45245;51.538;11.870;2022-07-22T08:28:49;1.30;;;1.20;;
59440;SDS011;45245;51.538;11.870;2022-07-22T08:31:14;2.08;;;1.55;;
59440;SDS011;45245;51.538;11.870;2022-07-22T08:33:40;2.17;;;1.45;;
59440;SDS011;45245;51.538;11.870;2022-07-22T08:36:05;2.53;;;1.60;;
59440;SDS011;45245;51.538;11.870;2022-07-22T08:38:31;1.67;;;1.52;;
59440;SDS011;45245;51.538;11.870;2022-07-22T08:40:56;1.88;;;1.23;;
59440;SDS011;45245;51.538;11.870;2022-07-22T08:43:22;1.60;;;1.50;;
59440;SDS011;45245;51.538;11.870;2022-07-22T08:45:48;1.92;;;1.83;;
59440;SDS011;45245;51.538;11.870;2022-07-22T08:48:14;1.45;;;1.35;;
59440;SDS011;45245;51.538;11.870;2022-07-22T08:50:39;2.13;;;1.35;;
59440;SDS011;45245;51.538;11.870;2022-07-22T08:53:08;2.10;;;1.63;;
59440;SDS011;45245;51.538;11.870;2022-07-22T08:55:39;4.05;;;2.20;;
59440;SDS011;45245;51.538;11.870;2022-07-22T08:58:08;2.28;;;1.40;;
59440;SDS011;45245;51.538;11.870;2022-07-22T09:00:33;2.08;;;1.60;;
59440;SDS011;45245;51.538;11.870;2022-07-22T09:02:59;1.42;;;1.30;;
59440;SDS011;45245;51.538;11.870;2022-07-22T09:05:24;3.40;;;1.60;;
59440;SDS011;45245;51.538;11.870;2022-07-22T09:07:58;1.80;;;1.70;;
59440;SDS011;45245;51.538;11.870;2022-07-22T09:10:23;1.38;;;1.27;;
59440;SDS011;45245;51.538;11.870;2022-07-22T09:15:24;3.78;;;1.55;;
59440;SDS011;45245;51.538;11.870;2022-07-22T09:17:54;2.03;;;1.48;;
59440;SDS011;45245;51.538;11.870;2022-07-22T09:20:20;1.52;;;1.42;;
59440;SDS011;45245;51.538;11.870;2022-07-22T09:22:46;1.58;;;1.48;;
59440;SDS011;45245;51.538;11.870;2022-07-22T09:25:17;1.85;;;1.50;;
59440;SDS011;45245;51.538;11.870;2022-07-22T09:27:43;1.98;;;1.60;;
59440;SDS011;45245;51.538;11.870;2022-07-22T09:30:13;1.73;;;1.63;;
59440;SDS011;45245;51.538;11.870;2022-07-22T09:32:48;1.63;;;1.52;;
59440;SDS011;45245;51.538;11.870;2022-07-22T09:35:14;1.55;;;1.42;;
59440;SDS011;45245;51.538;11.870;2022-07-22T09:37:47;1.60;;;1.50;;
59440;SDS011;45245;51.538;11.870;2022-07-22T09:40:16;3.90;;;1.77;;
59440;SDS011;45245;51.538;11.870;2022-07-22T09:42:44;2.28;;;2.10;;
59440;SDS011;45245;51.538;11.870;2022-07-22T09:45:11;3.17;;;1.90;;
59440;SDS011;45245;51.538;11.870;2022-07-22T09:47:36;1.60;;;1.50;;
59440;SDS011;45245;51.538;11.870;2022-07-22T09:50:01;2.28;;;1.95;;
59440;SDS011;45245;51.538;11.870;2022-07-22T09:52:27;1.77;;;1.67;;
59440;SDS011;45245;51.538;11.870;2022-07-22T09:54:52;1.70;;;1.60;;
59440;SDS011;45245;51.538;11.870;2022-07-22T09:57:18;1.92;;;1.83;;
59440;SDS011;45245;51.538;11.870;2022-07-22T09:59:44;2.33;;;2.13;;
59440;SDS011;45245;51.538;11.870;2022-07-22T10:02:09;2.25;;;2.10;;
59440;SDS011;45245;51.538;11.870;2022-07-22T10:04:35;2.15;;;2.05;;
59440;SDS011;45245;51.538;11.870;2022-07-22T10:07:02;2.05;;;1.95;;
59440;SDS011;45245;51.538;11.870;2022-07-22T10:09:27;2.35;;;2.15;;
59440;SDS011;45245;51.538;11.870;2022-07-22T10:11:53;2.25;;;2.05;;
59440;SDS011;45245;51.538;11.870;2022-07-22T10:14:19;2.80;;;2.60;;
59440;SDS011;45245;51.538;11.870;2022-07-22T10:16:45;2.63;;;2.50;;
59440;SDS011;45245;51.538;11.870;2022-07-22T10:19:10;3.28;;;2.33;;
59440;SDS011;45245;51.538;11.870;2022-07-22T10:21:36;3.33;;;3.03;;
59440;SDS011;45245;51.538;11.870;2022-07-22T10:24:06;3.08;;;2.80;;
59440;SDS011;45245;51.538;11.870;2022-07-22T10:29:38;3.28;;;2.67;;
59440;SDS011;45245;51.538;11.870;2022-07-22T10:34:43;4.20;;;3.80;;
59440;SDS011;45245;51.538;11.870;2022-07-22T10:40:12;3.10;;;2.85;;
59440;SDS011;45245;51.538;11.870;2022-07-22T10:48:09;3.83;;;3.47;;
59440;SDS011;45245;51.538;11.870;2022-07-22T10:53:01;4.60;;;4.20;;
59440;SDS011;45245;51.538;11.870;2022-07-22T10:55:27;4.20;;;3.90;;
59440;SDS011;45245;51.538;11.870;2022-07-22T10:57:53;4.57;;;4.18;;
59440;SDS011;45245;51.538;11.870;2022-07-22T11:00:18;4.25;;;3.95;;
59440;SDS011;45245;51.538;11.870;2022-07-22T11:02:43;7.38;;;4.03;;
59440;SDS011;45245;51.538;11.870;2022-07-22T11:05:09;4.32;;;3.92;;
59440;SDS011;45245;51.538;11.870;2022-07-22T11:07:40;4.30;;;3.92;;
59440;SDS011;45245;51.538;11.870;2022-07-22T11:10:14;5.30;;;4.00;;
59440;SDS011;45245;51.538;11.870;2022-07-22T11:12:40;4.53;;;3.53;;
59440;SDS011;45245;51.538;11.870;2022-07-22T11:15:06;3.88;;;3.58;;
59440;SDS011;45245;51.538;11.870;2022-07-22T11:17:32;4.15;;;3.75;;
59440;SDS011;45245;51.538;11.870;2022-07-22T11:20:00;3.78;;;3.47;;
59440;SDS011;45245;51.538;11.870;2022-07-22T11:22:35;3.47;;;3.28;;
59440;SDS011;45245;51.538;11.870;2022-07-22T11:25:02;4.28;;;3.78;;
59440;SDS011;45245;51.538;11.870;2022-07-22T11:27:30;3.90;;;3.60;;
59440;SDS011;45245;51.538;11.870;2022-07-22T11:29:55;3.50;;;3.30;;
59440;SDS011;45245;51.538;11.870;2022-07-22T11:32:22;3.55;;;2.95;;
59440;SDS011;45245;51.538;11.870;2022-07-22T11:34:49;3.88;;;3.58;;
59440;SDS011;45245;51.538;11.870;2022-07-22T11:37:16;3.60;;;3.28;;
59440;SDS011;45245;51.538;11.870;2022-07-22T11:39:43;3.92;;;3.45;;
59440;SDS011;45245;51.538;11.870;2022-07-22T11:42:09;3.13;;;2.92;;
59440;SDS011;45245;51.538;11.870;2022-07-22T11:44:35;3.58;;;3.28;;
59440;SDS011;45245;51.538;11.870;2022-07-22T11:47:02;2.97;;;2.67;;
59440;SDS011;45245;51.538;11.870;2022-07-22T11:49:29;4.18;;;3.05;;
59440;SDS011;45245;51.538;11.870;2022-07-22T11:51:56;2.97;;;2.70;;
59440;SDS011;45245;51.538;11.870;2022-07-22T11:54:21;2.60;;;2.40;;
59440;SDS011;45245;51.538;11.870;2022-07-22T11:56:47;2.78;;;2.50;;
59440;SDS011;45245;51.538;11.870;2022-07-22T11:59:13;2.55;;;2.45;;
59440;SDS011;45245;51.538;11.870;2022-07-22T12:01:40;2.92;;;2.60;;
59440;SDS011;45245;51.538;11.870;2022-07-22T12:04:10;2.83;;;2.53;;
59440;SDS011;45245;51.538;11.870;2022-07-22T12:06:38;2.97;;;2.35;;
59440;SDS011;45245;51.538;11.870;2022-07-22T12:09:06;2.45;;;2.25;;
59440;SDS011;45245;51.538;11.870;2022-07-22T12:11:33;2.58;;;2.38;;
59440;SDS011;45245;51.538;11.870;2022-07-22T12:14:04;2.13;;;2.03;;
59440;SDS011;45245;51.538;11.870;2022-07-22T12:16:34;2.67;;;2.47;;
59440;SDS011;45245;51.538;11.870;2022-07-22T12:21:29;2.22;;;2.13;;
59440;SDS011;45245;51.538;11.870;2022-07-22T12:23:57;2.00;;;1.90;;
59440;SDS011;45245;51.538;11.870;2022-07-22T12:31:45;4.60;;;2.00;;
59440;SDS011;45245;51.538;11.870;2022-07-22T12:34:11;2.28;;;1.80;;
59440;SDS011;45245;51.538;11.870;2022-07-22T12:36:37;2.10;;;1.90;;
59440;SDS011;45245;51.538;11.870;2022-07-22T12:39:18;3.20;;;1.90;;
59440;SDS011;45245;51.538;11.870;2022-07-22T12:41:51;4.28;;;1.90;;
59440;SDS011;45245;51.538;11.870;2022-07-22T12:44:23;2.05;;;1.85;;
59440;SDS011;45245;51.538;11.870;2022-07-22T12:46:51;1.92;;;1.77;;
59440;SDS011;45245;51.538;11.870;2022-07-22T12:49:18;1.83;;;1.70;;
59440;SDS011;45245;51.538;11.870;2022-07-22T12:54:38;1.80;;;1.67;;
59440;SDS011;45245;51.538;11.870;2022-07-22T12:57:06;1.75;;;1.65;;
59440;SDS011;45245;51.538;11.870;2022-07-22T12:59:32;1.60;;;1.50;;
59440;SDS011;45245;51.538;11.870;2022-07-22T13:01:57;1.80;;;1.70;;
59440;SDS011;45245;51.538;11.870;2022-07-22T13:04:22;1.45;;;1.35;;
59440;SDS011;45245;51.538;11.870;2022-07-22T13:06:48;1.95;;;1.85;;
59440;SDS011;45245;51.538;11.870;2022-07-22T13:09:14;2.05;;;1.67;;
59440;SDS011;45245;51.538;11.870;2022-07-22T13:11:39;1.92;;;1.42;;
59440;SDS011;45245;51.538;11.870;2022-07-22T13:14:08;1.27;;;1.23;;
59440;SDS011;45245;51.538;11.870;2022-07-22T13:16:34;1.58;;;1.48;;
59440;SDS011;45245;51.538;11.870;2022-07-22T13:18:59;3.88;;;1.77;;
59440;SDS011;45245;51.538;11.870;2022-07-22T13:21:25;1.85;;;1.75;;
59440;SDS011;45245;51.538;11.870;2022-07-22T13:23:50;3.35;;;1.63;;
59440;SDS011;45245;51.538;11.870;2022-07-22T13:26:15;3.22;;;1.23;;
59440;SDS011;45245;51.538;11.870;2022-07-22T13:28:41;2.25;;;1.70;;
59440;SDS011;45245;51.538;11.870;2022-07-22T13:31:07;1.65;;;1.55;;
59440;SDS011;45245;51.538;11.870;2022-07-22T13:33:33;1.92;;;1.20;;
59440;SDS011;45245;51.538;11.870;2022-07-22T13:35:59;2.58;;;1.50;;
59440;SDS011;45245;51.538;11.870;2022-07-22T13:38:24;1.58;;;1.48;;
59440;SDS011;45245;51.538;11.870;2022-07-22T13:40:50;2.08;;;1.45;;
59440;SDS011;45245;51.538;11.870;2022-07-22T13:43:16;1.83;;;1.27;;
59440;SDS011;45245;51.538;11.870;2022-07-22T13:45:43;2.05;;;1.95;;
59440;SDS011;45245;51.538;11.870;2022-07-22T13:48:08;2.78;;;1.38;;
59440;SDS011;45245;51.538;11.870;2022-07-22T13:50:33;1.65;;;1.55;;
59440;SDS011;45245;51.538;11.870;2022-07-22T13:52:59;1.55;;;1.45;;
59440;SDS011;45245;51.538;11.870;2022-07-22T13:55:24;1.20;;;1.10;;
59440;SDS011;45245;51.538;11.870;2022-07-22T13:57:50;1.67;;;1.45;;
59440;SDS011;45245;51.538;11.870;2022-07-22T14:00:15;1.60;;;1.50;;
59440;SDS011;45245;51.538;11.870;2022-07-22T14:02:42;1.70;;;1.60;;
59440;SDS011;45245;51.538;11.870;2022-07-22T14:05:08;2.90;;;1.60;;
59440;SDS011;45245;51.538;11.870;2022-07-22T14:07:34;1.73;;;1.63;;
59440;SDS011;45245;51.538;11.870;2022-07-22T14:09:59;1.70;;;1.60;;
59440;SDS011;45245;51.538;11.870;2022-07-22T14:12:24;1.50;;;1.40;;
59440;SDS011;45245;51.538;11.870;2022-07-22T14:14:50;2.17;;;1.50;;
59440;SDS011;45245;51.538;11.870;2022-07-22T14:17:15;1.60;;;1.50;;
59440;SDS011;45245;51.538;11.870;2022-07-22T14:19:41;1.70;;;1.60;;
59440;SDS011;45245;51.538;11.870;2022-07-22T14:22:06;1.85;;;1.70;;
59440;SDS011;45245;51.538;11.870;2022-07-22T14:24:31;3.13;;;1.65;;
59440;SDS011;45245;51.538;11.870;2022-07-22T14:26:56;1.80;;;1.70;;
59440;SDS011;45245;51.538;11.870;2022-07-22T14:29:22;1.67;;;1.52;;
59440;SDS011;45245;51.538;11.870;2022-07-22T14:31:47;1.70;;;1.60;;
59440;SDS011;45245;51.538;11.870;2022-07-22T14:34:13;2.17;;;1.60;;
59440;SDS011;45245;51.538;11.870;2022-07-22T14:36:38;1.80;;;1.70;;
59440;SDS011;45245;51.538;11.870;2022-07-22T14:39:03;3.38;;;1.83;;
59440;SDS011;45245;51.538;11.870;2022-07-22T14:41:29;1.88;;;1.77;;
59440;SDS011;45245;51.538;11.870;2022-07-22T14:43:54;3.10;;;1.67;;
59440;SDS011;45245;51.538;11.870;2022-07-22T14:46:19;1.77;;;1.67;;
59440;SDS011;45245;51.538;11.870;2022-07-22T14:48:45;1.90;;;1.80;;
59440;SDS011;45245;51.538;11.870;2022-07-22T14:51:11;1.70;;;1.60;;
59440;SDS011;45245;51.538;11.870;2022-07-22T14:53:36;2.78;;;1.77;;
59440;SDS011;45245;51.538;11.870;2022-07-22T14:56:01;2.00;;;1.90;;